Time;durP1;ratioP1;P1;durP2;ratioP2;P2;SDS_P1;SDS_P2;PMS_P1;PMS_P2;Temp;Humidity;BMP_temperature;BMP_pressure;BME280_temperature;BME280_humidity;BME280_pressure;Samples;Min_cycle;Max_cycle;Signal;HPM_P1;HPM_P2
2022/06/14 00:03:04;;;;;;;5.87;3.70;;;;;;;14.65;85.05;98727.47;5056950;28;20207;-82
2022/06/14 00:05:31;;;;;;;6.97;3.80;;;;;;;14.65;84.92;98730.16;5057081;28;20212;-82
2022/06/14 00:07:57;;;;;;;5.53;3.77;;;;;;;14.64;84.88;98725.78;5057073;28;20247;-82
2022/06/14 00:10:25;;;;;;;5.00;3.80;;;;;;;14.60;84.81;98729.66;5056599;28;20799;-82
2022/06/14 00:12:53;;;;;;;4.30;3.70;;;;;;;14.57;85.04;98729.88;5056696;28;20235;-82
2022/06/14 00:15:20;;;;;;;8.90;3.87;;;;;;;14.57;85.58;98729.88;5056788;28;20230;-82
2022/06/14 00:17:47;;;;;;;7.20;3.90;;;;;;;14.50;86.15;98724.19;5057249;28;20234;-82
2022/06/14 00:20:13;;;;;;;6.67;3.83;;;;;;;14.49;86.45;98732.28;5056603;28;20236;-82
2022/06/14 00:22:40;;;;;;;5.30;4.33;;;;;;;14.44;86.99;98726.47;5057046;28;20212;-82
2022/06/14 00:25:08;;;;;;;5.17;4.00;;;;;;;14.40;86.96;98719.66;5056785;28;20220;-82
2022/06/14 00:27:34;;;;;;;4.70;3.90;;;;;;;14.34;87.08;98722.78;5055193;28;20208;-83
2022/06/14 00:30:02;;;;;;;6.03;4.37;;;;;;;14.34;87.00;98723.66;5057030;28;20208;-82
2022/06/14 00:32:29;;;;;;;6.57;3.83;;;;;;;14.30;87.41;98726.66;5056595;28;20204;-82
2022/06/14 00:34:55;;;;;;;6.67;4.43;;;;;;;14.29;87.29;98717.81;5057077;28;20570;-83
2022/06/14 00:37:22;;;;;;;4.60;4.10;;;;;;;14.28;87.31;98720.59;5056232;28;20697;-82
2022/06/14 00:39:48;;;;;;;5.93;4.37;;;;;;;14.23;87.56;98731.56;5057271;28;20214;-82
2022/06/14 00:42:19;;;;;;;5.80;3.83;;;;;;;14.22;87.70;98723.69;5056687;28;20231;-82
2022/06/14 00:45:03;;;;;;;5.77;3.67;;;;;;;14.18;87.86;98724.88;5056324;28;20666;-82
2022/06/14 00:47:34;;;;;;;5.33;3.93;;;;;;;14.14;87.66;98718.09;5056989;28;20208;-82
2022/06/14 00:50:03;;;;;;;5.40;4.10;;;;;;;14.09;88.23;98717.56;5056312;28;20244;-82
2022/06/14 00:52:35;;;;;;;5.23;3.70;;;;;;;14.10;88.20;98716.59;5054644;28;20212;-83
2022/06/14 00:55:09;;;;;;;5.27;4.17;;;;;;;14.04;88.17;98719.72;5056419;28;20215;-82
2022/06/14 00:57:42;;;;;;;6.37;4.00;;;;;;;14.01;88.72;98709.31;5056793;28;20204;-82
2022/06/14 01:00:15;;;;;;;5.43;3.90;;;;;;;13.98;88.63;98712.19;5056693;28;20204;-82
2022/06/14 01:02:47;;;;;;;7.33;4.13;;;;;;;13.95;88.38;98709.78;5056016;28;20208;-82
2022/06/14 01:05:19;;;;;;;5.00;3.97;;;;;;;13.95;88.56;98715.09;5056053;28;20651;-82
2022/06/14 01:07:50;;;;;;;5.47;4.00;;;;;;;13.93;88.55;98706.38;5056472;28;20299;-82
2022/06/14 01:10:21;;;;;;;5.13;3.80;;;;;;;13.89;88.39;98710.22;5055856;28;20666;-82
2022/06/14 01:12:52;;;;;;;8.37;4.10;;;;;;;13.87;88.13;98704.19;5055789;28;20212;-83
2022/06/14 01:15:22;;;;;;;7.10;4.47;;;;;;;13.86;88.52;98707.78;5055700;28;20665;-82
2022/06/14 01:17:53;;;;;;;9.03;4.93;;;;;;;13.82;89.04;98711.63;5054082;28;20697;-83
2022/06/14 01:20:22;;;;;;;5.67;4.20;;;;;;;13.80;88.94;98702.91;5056054;28;20212;-83
2022/06/14 01:22:52;;;;;;;6.73;4.80;;;;;;;13.80;88.92;98705.56;5056092;28;20208;-83
2022/06/14 01:25:19;;;;;;;7.67;4.70;;;;;;;13.77;89.11;98695.19;5055802;28;20212;-82
2022/06/14 01:27:46;;;;;;;6.80;4.43;;;;;;;13.76;89.19;98698.78;5055590;28;20215;-83
2022/06/14 01:30:16;;;;;;;7.07;4.63;;;;;;;13.71;89.86;98696.47;5055476;28;20227;-82
2022/06/14 01:32:49;;;;;;;5.80;4.70;;;;;;;13.69;89.86;98694.91;5055678;28;20201;-83
2022/06/14 01:35:21;;;;;;;6.80;4.83;;;;;;;13.69;89.76;98694.91;5055300;28;20204;-82
2022/06/14 01:37:52;;;;;;;5.70;4.47;;;;;;;13.69;90.29;98697.56;5055735;28;20239;-82
2022/06/14 01:40:20;;;;;;;7.23;4.97;;;;;;;13.67;90.24;98699.44;5055390;28;20216;-82
2022/06/14 01:43:05;;;;;;;6.57;4.67;;;;;;;13.66;91.15;98700.41;5055276;28;20214;-83
2022/06/14 01:45:41;;;;;;;7.57;4.40;;;;;;;13.54;91.99;98694.19;5053960;28;20302;-82
2022/06/14 01:48:20;;;;;;;8.10;5.23;;;;;;;13.38;93.78;98692.75;5055525;28;20208;-82
2022/06/14 01:53:49;;;;;;;5.67;4.20;;;;;;;13.12;95.74;98709.66;5054930;28;20211;-82
2022/06/14 01:56:22;;;;;;;5.70;4.70;;;;;;;13.02;96.63;98705.97;5055037;28;20688;-83
2022/06/14 01:59:01;;;;;;;6.53;4.73;;;;;;;12.90;98.03;98699.66;5055649;28;20219;-82
2022/06/14 02:01:33;;;;;;;6.17;4.80;;;;;;;12.82;99.40;98703.81;5055048;28;20231;-82
2022/06/14 02:07:05;;;;;;;5.73;5.10;;;;;;;12.61;100.00;98710.59;5054830;28;20742;-82
2022/06/14 02:09:39;;;;;;;5.57;4.93;;;;;;;12.53;100.00;98712.94;5053231;28;20207;-83
2022/06/14 02:12:09;;;;;;;6.17;5.00;;;;;;;12.45;100.00;98705.47;5055232;28;20234;-82
2022/06/14 02:14:41;;;;;;;6.87;5.60;;;;;;;12.44;100.00;98702.94;5055151;28;20294;-82
2022/06/14 02:17:12;;;;;;;7.90;5.13;;;;;;;12.42;100.00;98710.16;5054672;28;20218;-82
2022/06/14 02:19:42;;;;;;;7.03;5.07;;;;;;;12.38;100.00;98706.84;5054600;28;20744;-82
2022/06/14 02:22:12;;;;;;;7.70;4.87;;;;;;;12.34;100.00;98696.56;5055133;28;20318;-82
2022/06/14 02:24:47;;;;;;;6.47;5.43;;;;;;;12.29;100.00;98704.81;5054184;28;20204;-82
2022/06/14 02:27:19;;;;;;;5.87;4.77;;;;;;;12.26;100.00;98704.16;5054722;28;20229;-82
2022/06/14 02:29:50;;;;;;;7.23;5.20;;;;;;;12.26;100.00;98705.03;5054790;28;20211;-82
2022/06/14 02:32:22;;;;;;;7.97;4.93;;;;;;;12.19;100.00;98694.94;5054519;28;20207;-82
2022/06/14 02:34:55;;;;;;;6.80;5.20;;;;;;;12.17;100.00;98710.09;5054331;28;20212;-82
2022/06/14 02:37:26;;;;;;;6.40;4.87;;;;;;;12.16;100.00;98697.78;5053762;28;20245;-82
2022/06/14 02:39:57;;;;;;;5.70;4.73;;;;;;;12.18;100.00;98695.88;5054359;28;20733;-82
2022/06/14 02:42:31;;;;;;;7.63;5.30;;;;;;;12.22;100.00;98702.69;5054487;28;20239;-82
2022/06/14 02:45:04;;;;;;;8.07;5.43;;;;;;;12.28;100.00;98700.47;5053997;28;20220;-82
2022/06/14 02:47:38;;;;;;;7.63;4.87;;;;;;;12.32;100.00;98698.44;5054192;28;20217;-82
2022/06/14 02:50:12;;;;;;;7.37;4.80;;;;;;;12.33;100.00;98690.41;5054112;28;20210;-82
2022/06/14 02:52:43;;;;;;;5.77;4.97;;;;;;;12.35;100.00;98693.78;5054756;28;20207;-82
2022/06/14 02:55:17;;;;;;;7.10;5.10;;;;;;;12.29;100.00;98693.38;5054283;28;20211;-82
2022/06/14 02:57:48;;;;;;;6.63;5.67;;;;;;;12.17;100.00;98696.84;5054042;28;20254;-82
2022/06/14 03:00:18;;;;;;;8.50;5.07;;;;;;;12.12;100.00;98701.59;5054393;28;20216;-82
2022/06/14 03:02:51;;;;;;;5.87;5.23;;;;;;;12.07;100.00;98701.91;5052332;28;20240;-81
2022/06/14 03:05:25;;;;;;;7.20;4.87;;;;;;;12.02;100.00;98700.50;5054466;28;20219;-82
2022/06/14 03:08:02;;;;;;;6.30;4.73;;;;;;;11.97;100.00;98697.28;5054582;28;20226;-83
2022/06/14 03:10:38;;;;;;;8.37;5.10;;;;;;;11.97;100.00;98694.63;5053979;28;20214;-81
2022/06/14 03:13:12;;;;;;;7.50;4.83;;;;;;;11.93;100.00;98695.81;5053617;28;20226;-81
2022/06/14 03:15:43;;;;;;;6.90;5.20;;;;;;;11.91;100.00;98695.91;5054078;28;20223;-83
2022/06/14 03:18:22;;;;;;;6.17;5.03;;;;;;;11.93;100.00;98703.75;5053982;28;20583;-81
2022/06/14 03:20:56;;;;;;;7.10;5.33;;;;;;;11.97;100.00;98703.44;5053906;28;20204;-81
2022/06/14 03:23:33;;;;;;;6.97;5.17;;;;;;;12.00;100.00;98702.41;5054177;28;20215;-81
2022/06/14 03:26:05;;;;;;;5.40;4.77;;;;;;;12.02;100.00;98703.13;5054014;28;20217;-81
2022/06/14 03:28:39;;;;;;;6.37;5.03;;;;;;;11.95;100.00;98704.50;5053279;28;20290;-80
2022/06/14 03:31:09;;;;;;;7.07;5.43;;;;;;;11.89;100.00;98696.94;5064985;28;20268;-82
2022/06/14 03:33:44;;;;;;;7.80;5.30;;;;;;;11.80;100.00;98700.22;5066323;28;20209;-83
2022/06/14 03:36:11;;;;;;;6.93;5.47;;;;;;;11.77;100.00;98692.44;5066271;28;20320;-84
2022/06/14 03:38:42;;;;;;;5.97;5.37;;;;;;;11.80;100.00;98702.88;5064852;28;20235;-82
2022/06/14 03:41:13;;;;;;;8.10;6.40;;;;;;;11.80;100.00;98689.63;5064794;28;20212;-82
2022/06/14 03:43:41;;;;;;;6.90;5.83;;;;;;;11.76;100.00;98696.06;5065805;28;20646;-82
2022/06/14 03:46:13;;;;;;;7.40;5.80;;;;;;;11.72;100.00;98694.53;5066759;28;20301;-80
2022/06/14 03:48:43;;;;;;;8.43;5.57;;;;;;;11.76;100.00;98691.63;5065838;28;20221;-80
2022/06/14 03:51:16;;;;;;;8.13;5.60;;;;;;;11.85;100.00;98692.78;5064875;28;20299;-81
2022/06/14 03:53:58;;;;;;;8.93;5.67;;;;;;;11.86;100.00;98697.16;5062597;28;20214;-80
2022/06/14 03:56:34;;;;;;;6.27;5.37;;;;;;;11.89;100.00;98696.94;5059691;28;20214;-81
2022/06/14 03:59:21;;;;;;;7.63;6.07;;;;;;;11.92;100.00;98702.06;5053721;28;20304;-81
2022/06/14 04:01:51;;;;;;;6.17;5.23;;;;;;;12.00;100.00;98703.25;5053814;28;20719;-81
2022/06/14 04:04:34;;;;;;;8.67;5.33;;;;;;;12.05;100.00;98700.31;5053793;28;20215;-81
2022/06/14 04:07:11;;;;;;;7.03;5.63;;;;;;;12.11;100.00;98697.25;5054062;28;20219;-81
2022/06/14 04:09:47;;;;;;;5.30;4.50;;;;;;;12.12;100.00;98706.88;5053728;28;20217;-81
2022/06/14 04:12:22;;;;;;;7.70;5.13;;;;;;;12.15;100.00;98701.38;5053472;28;20211;-81
2022/06/14 04:15:06;;;;;;;8.03;5.23;;;;;;;12.18;100.00;98698.53;5053099;28;20223;-81
2022/06/14 04:17:43;;;;;;;7.50;5.60;;;;;;;12.23;100.00;98699.09;5053296;28;20216;-81
2022/06/14 04:20:18;;;;;;;7.53;5.30;;;;;;;12.28;100.00;98694.31;5051794;28;20226;-81
2022/06/14 04:22:57;;;;;;;8.17;5.57;;;;;;;12.36;100.00;98694.66;5053023;28;20230;-81
2022/06/14 04:25:32;;;;;;;6.10;5.50;;;;;;;12.38;100.00;98703.34;5053178;28;20295;-81
2022/06/14 04:28:10;;;;;;;5.30;4.77;;;;;;;12.45;100.00;98696.66;5052639;28;20672;-81
2022/06/14 04:30:45;;;;;;;9.07;5.90;;;;;;;12.53;100.00;98699.66;5052828;28;20233;-81
2022/06/14 04:33:16;;;;;;;5.90;5.30;;;;;;;12.60;100.00;98699.13;5053263;28;20207;-81
2022/06/14 04:35:47;;;;;;;7.77;5.63;;;;;;;12.68;100.00;98701.25;5052759;28;20208;-83
2022/06/14 04:38:20;;;;;;;6.60;5.93;;;;;;;12.70;100.00;98710.81;5052811;28;20243;-81
2022/06/14 04:40:50;;;;;;;6.87;5.73;;;;;;;12.81;100.00;98712.72;5052749;28;20573;-81
2022/06/14 04:43:22;;;;;;;9.33;5.70;;;;;;;12.88;100.00;98706.03;5052769;28;20238;-81
2022/06/14 04:45:56;;;;;;;7.83;5.23;;;;;;;12.96;100.00;98706.41;5051076;28;20208;-81
2022/06/14 04:48:29;;;;;;;6.80;5.47;;;;;;;13.01;100.00;98698.97;5055917;28;20222;-81
2022/06/14 04:51:01;;;;;;;8.43;5.70;;;;;;;13.06;100.00;98700.34;5057154;28;20581;-80
2022/06/14 04:53:32;;;;;;;5.73;5.17;;;;;;;13.16;100.00;98704.06;5056917;28;20211;-80
2022/06/14 04:56:03;;;;;;;7.00;5.40;;;;;;;13.54;100.00;98703.97;5056553;28;20227;-80
2022/06/14 04:58:38;;;;;;;6.67;4.90;;;;;;;14.29;100.00;98693.88;5055874;28;20692;-81
2022/06/14 05:01:12;;;;;;;5.97;5.10;;;;;;;15.06;96.94;98695.88;5056518;28;20238;-81
2022/06/14 05:03:43;;;;;;;5.97;4.67;;;;;;;15.84;93.00;98698.41;5056309;28;20238;-81
2022/06/14 05:06:14;;;;;;;6.47;4.93;;;;;;;16.76;87.37;98697.66;5056098;28;20211;-81
2022/06/14 05:08:48;;;;;;;7.50;4.87;;;;;;;17.67;81.71;98691.34;5055638;28;20212;-81
2022/06/14 05:11:20;;;;;;;5.67;4.57;;;;;;;18.41;76.90;98685.44;5054317;28;20303;-81
2022/06/14 05:13:55;;;;;;;6.07;4.50;;;;;;;19.00;73.22;98686.06;5055832;28;20211;-81
2022/06/14 05:16:26;;;;;;;7.43;4.37;;;;;;;19.66;69.82;98693.03;5055768;28;20212;-81
2022/06/14 05:18:59;;;;;;;6.40;4.47;;;;;;;20.27;64.98;98686.03;5055777;28;20215;-81
2022/06/14 05:21:33;;;;;;;10.00;5.20;;;;;;;20.86;60.45;98690.75;5056066;28;20564;-81
2022/06/14 05:24:01;;;;;;;7.33;5.03;;;;;;;21.37;57.63;98680.00;5055421;28;20211;-81
2022/06/14 05:26:47;;;;;;;7.27;4.93;;;;;;;21.89;55.80;98693.22;5055632;28;20242;-81
2022/06/14 05:29:22;;;;;;;6.60;4.87;;;;;;;22.36;54.29;98691.66;5055189;28;20299;-81
2022/06/14 05:31:59;;;;;;;9.33;5.57;;;;;;;22.74;51.68;98688.34;5055223;28;20210;-81
2022/06/14 05:34:34;;;;;;;11.80;5.40;;;;;;;22.87;50.43;98679.78;5055048;28;20694;-81
2022/06/14 05:37:10;;;;;;;7.17;5.60;;;;;;;23.07;49.48;98686.47;5053433;28;20212;-82
2022/06/14 05:39:46;;;;;;;7.03;5.17;;;;;;;23.15;49.18;98687.31;5055111;28;20235;-81
2022/06/14 05:42:17;;;;;;;6.13;5.20;;;;;;;23.44;49.02;98684.94;5055670;28;20228;-81
2022/06/14 05:44:48;;;;;;;7.60;5.00;;;;;;;23.83;48.57;98687.66;5055306;28;20212;-81
2022/06/14 05:47:18;;;;;;;7.03;4.67;;;;;;;24.21;47.53;98695.75;5055302;28;20208;-81
2022/06/14 05:49:49;;;;;;;6.13;4.87;;;;;;;24.44;47.35;98693.09;5054711;28;20212;-81
2022/06/14 05:52:20;;;;;;;7.63;5.47;;;;;;;24.67;46.01;98689.38;5055358;28;20219;-81
2022/06/14 05:54:51;;;;;;;5.23;4.20;;;;;;;25.04;46.05;98696.66;5055261;28;20304;-81
2022/06/14 05:57:24;;;;;;;8.37;4.77;;;;;;;25.32;45.04;98695.94;5055288;28;20254;-82
2022/06/14 05:59:58;;;;;;;6.53;4.70;;;;;;;25.46;43.51;98697.81;5054540;28;20576;-82
2022/06/14 06:02:31;;;;;;;5.33;4.17;;;;;;;25.66;43.17;98698.09;5053456;28;20228;-80
2022/06/14 06:05:02;;;;;;;8.03;4.80;;;;;;;25.77;43.10;98695.75;5054779;28;20240;-80
2022/06/14 06:07:33;;;;;;;6.17;5.00;;;;;;;25.91;42.43;98700.34;5054455;28;20793;-80
2022/06/14 06:10:06;;;;;;;6.33;4.90;;;;;;;25.72;41.90;98703.59;5054885;28;20223;-80
2022/06/14 06:12:37;;;;;;;5.03;4.43;;;;;;;25.83;41.84;98692.28;5054928;28;20214;-80
2022/06/14 06:15:13;;;;;;;6.13;4.60;;;;;;;26.14;41.13;98700.22;5054996;28;20303;-79
2022/06/14 06:17:45;;;;;;;5.73;4.40;;;;;;;26.23;40.91;98694.50;5054934;28;20212;-80
2022/06/14 06:20:27;;;;;;;7.20;5.03;;;;;;;26.31;41.70;98694.38;5054443;28;20595;-80
2022/06/14 06:23:06;;;;;;;7.30;4.87;;;;;;;26.21;40.88;98688.41;5054422;28;20262;-80
2022/06/14 06:25:37;;;;;;;7.07;4.83;;;;;;;26.10;41.25;98688.09;5054186;28;20212;-80
2022/06/14 06:28:08;;;;;;;7.40;4.90;;;;;;;26.10;41.34;98697.03;5052906;28;20214;-80
2022/06/14 06:30:40;;;;;;;6.23;4.60;;;;;;;26.27;40.44;98693.06;5054330;28;20223;-80
2022/06/14 06:33:10;;;;;;;7.27;4.83;;;;;;;26.41;40.08;98692.22;5054021;28;20208;-80
2022/06/14 06:35:46;;;;;;;5.97;4.50;;;;;;;26.52;39.36;98688.16;5053976;28;20673;-80
2022/06/14 06:38:24;;;;;;;6.70;4.70;;;;;;;26.22;40.14;98689.28;5054392;28;20293;-80
2022/06/14 06:43:45;;;;;;;5.63;4.53;;;;;;;25.85;39.78;98692.09;5054026;28;20242;-80
2022/06/14 06:46:15;;;;;;;5.27;3.60;;;;;;;26.06;40.61;98690.34;5053843;28;20693;-80
2022/06/14 06:48:46;;;;;;;5.67;4.00;;;;;;;26.55;39.73;98696.78;5054106;28;20235;-80
2022/06/14 06:51:18;;;;;;;8.30;3.80;;;;;;;26.97;39.14;98685.91;5053773;28;20204;-80
2022/06/14 06:53:50;;;;;;;7.07;4.40;;;;;;;27.11;38.08;98693.13;5052349;28;20212;-80
2022/06/14 06:56:23;;;;;;;4.87;4.20;;;;;;;26.95;38.51;98687.97;5053655;28;20760;-81
2022/06/14 06:58:53;;;;;;;5.53;4.70;;;;;;;26.80;38.14;98689.06;5053870;28;20223;-81
2022/06/14 07:01:24;;;;;;;6.00;3.90;;;;;;;26.69;38.65;98687.72;5053614;28;20584;-83
2022/06/14 07:03:58;;;;;;;8.73;4.90;;;;;;;26.63;39.29;98685.78;5053471;28;20231;-81
2022/06/14 07:06:28;;;;;;;8.13;5.00;;;;;;;26.60;39.12;98688.91;5053379;28;20668;-81
2022/06/14 07:08:59;;;;;;;6.90;5.20;;;;;;;26.25;39.22;98689.72;5053378;28;20673;-82
2022/06/14 07:11:31;;;;;;;6.27;4.60;;;;;;;25.59;40.54;98686.34;5053252;28;20208;-81
2022/06/14 07:14:02;;;;;;;5.53;4.63;;;;;;;24.73;41.91;98691.38;5054052;28;20214;-82
2022/06/14 07:16:34;;;;;;;7.50;5.00;;;;;;;23.50;44.40;98692.34;5053639;28;20295;-81
2022/06/14 07:19:13;;;;;;;5.07;4.23;;;;;;;22.17;47.46;98689.28;5051806;28;20208;-80
2022/06/14 07:21:44;;;;;;;7.23;4.90;;;;;;;21.41;49.86;98695.69;5053653;28;20208;-81
2022/06/14 07:24:17;;;;;;;5.93;4.40;;;;;;;21.05;52.44;98688.75;5054343;28;20616;-80
2022/06/14 07:26:47;;;;;;;6.37;4.80;;;;;;;20.79;53.11;98693.22;5053708;28;20688;-80
2022/06/14 07:29:19;;;;;;;5.47;4.73;;;;;;;20.74;55.03;98692.00;5053506;28;20212;-80
2022/06/14 07:31:54;;;;;;;7.33;4.30;;;;;;;20.64;54.62;98689.41;5053249;28;20201;-81
2022/06/14 07:34:21;;;;;;;4.63;4.20;;;;;;;20.59;55.16;98691.69;5053540;28;20215;-81
2022/06/14 07:36:59;;;;;;;5.63;4.17;;;;;;;20.68;56.56;98693.47;5053511;28;20207;-81
2022/06/14 07:39:36;;;;;;;6.17;4.80;;;;;;;20.50;52.92;98683.72;5053469;28;20208;-80
2022/06/14 07:42:08;;;;;;;4.57;4.10;;;;;;;20.51;54.99;98691.63;5053454;28;20203;-81
2022/06/14 07:44:46;;;;;;;5.93;4.40;;;;;;;20.54;53.41;98688.63;5052318;28;20294;-81
2022/06/14 07:47:20;;;;;;;6.20;4.73;;;;;;;20.53;55.94;98688.78;5053654;28;20574;-80
2022/06/14 07:49:56;;;;;;;8.70;4.77;;;;;;;20.76;53.78;98690.84;5053154;28;20219;-81
2022/06/14 07:52:29;;;;;;;7.57;5.10;;;;;;;20.76;53.77;98692.69;5053359;28;20204;-81
2022/06/14 07:55:04;;;;;;;5.90;4.70;;;;;;;20.63;53.81;98695.78;5052968;28;20204;-80
2022/06/14 07:57:34;;;;;;;5.20;4.27;;;;;;;20.69;52.79;98692.47;5053463;28;20203;-81
2022/06/14 08:03:02;;;;;;;5.37;4.43;;;;;;;20.86;53.37;98688.88;5052639;28;20237;-81
2022/06/14 08:05:34;;;;;;;5.50;4.23;;;;;;;20.99;53.99;98678.63;5053270;28;20578;-81
2022/06/14 08:08:05;;;;;;;5.63;4.20;;;;;;;21.09;53.78;98687.41;5052838;28;20222;-83
2022/06/14 08:10:37;;;;;;;5.80;4.17;;;;;;;21.17;51.80;98676.72;5051485;28;20215;-80
2022/06/14 08:13:09;;;;;;;5.77;4.67;;;;;;;21.22;52.72;98674.38;5053225;28;20671;-81
2022/06/14 08:15:38;;;;;;;7.30;4.43;;;;;;;21.28;53.21;98679.13;5053227;28;20279;-81
2022/06/14 08:18:14;;;;;;;6.93;4.53;;;;;;;21.44;51.84;98678.38;5052665;28;20299;-81
2022/06/14 08:20:46;;;;;;;6.20;4.53;;;;;;;21.39;52.25;98669.97;5053186;28;20215;-81
2022/06/14 08:23:17;;;;;;;5.57;4.40;;;;;;;21.47;52.03;98678.88;5055308;28;20238;-80
2022/06/14 08:25:48;;;;;;;6.03;4.60;;;;;;;21.51;50.14;98679.44;5056280;28;20212;-80
2022/06/14 08:28:21;;;;;;;5.10;4.27;;;;;;;21.47;50.95;98673.50;5055199;28;20291;-81
2022/06/14 08:30:55;;;;;;;6.77;4.27;;;;;;;21.45;50.50;98686.28;5056429;28;20212;-81
2022/06/14 08:33:28;;;;;;;6.67;4.20;;;;;;;21.57;49.20;98673.41;5056318;28;20204;-80
2022/06/14 08:35:59;;;;;;;5.70;4.07;;;;;;;21.44;49.26;98678.38;5055240;28;20579;-79
2022/06/14 08:38:31;;;;;;;6.33;4.17;;;;;;;21.44;51.60;98673.00;5056796;28;20235;-80
2022/06/14 08:41:13;;;;;;;6.80;4.37;;;;;;;21.53;52.15;98675.56;5056453;28;20306;-81
2022/06/14 08:43:44;;;;;;;5.27;4.37;;;;;;;21.65;50.38;98671.56;5056694;28;20231;-80
2022/06/14 08:46:20;;;;;;;5.03;3.70;;;;;;;21.72;49.12;98675.34;5056620;28;20212;-81
2022/06/14 08:49:08;;;;;;;7.03;4.00;;;;;;;21.77;50.21;98672.19;5056793;28;20204;-80
2022/06/14 08:51:39;;;;;;;5.93;3.87;;;;;;;21.92;47.45;98668.69;5057186;28;20215;-80
2022/06/14 08:54:44;;;;;;;6.20;4.03;;;;;;;21.93;47.30;98659.59;5056754;28;20203;-81
2022/06/14 08:57:41;;;;;;;5.43;4.17;;;;;;;21.83;47.70;98658.88;5056767;28;20208;-79
2022/06/14 09:00:32;;;;;;;6.80;4.00;;;;;;;21.84;48.24;98655.22;5056687;28;20570;-80
2022/06/14 09:03:35;;;;;;;6.80;4.00;;;;;;;21.86;48.74;98665.78;5054669;28;20231;-79
2022/06/14 09:06:27;;;;;;;8.33;3.63;;;;;;;22.11;45.94;98652.25;5056383;28;20220;-80
2022/06/14 09:09:41;;;;;;;4.50;3.30;;;;;;;22.06;47.01;98653.75;5056175;28;20740;-80
2022/06/14 09:12:32;;;;;;;6.40;3.73;;;;;;;22.23;47.26;98648.22;5050575;28;20218;-80
2022/06/14 09:15:28;;;;;;;5.33;4.20;;;;;;;22.41;47.82;98640.84;5056464;28;20208;-80
2022/06/14 09:18:08;;;;;;;6.63;3.80;;;;;;;22.52;48.05;98629.75;5030448;28;20226;-81
2022/06/14 09:20:40;;;;;;;6.83;3.70;;;;;;;22.71;48.04;98633.94;5056345;28;20208;-81
2022/06/14 09:23:31;;;;;;;5.43;3.73;;;;;;;22.77;46.81;98631.44;5055993;28;20274;-80
2022/06/14 09:26:20;;;;;;;6.37;4.00;;;;;;;22.78;47.23;98618.78;5055488;28;20204;-81
2022/06/14 09:29:31;;;;;;;6.33;4.23;;;;;;;22.83;45.86;98619.13;5054764;28;20204;-79
2022/06/14 09:32:25;;;;;;;7.13;3.70;;;;;;;22.92;46.30;98620.81;5055459;28;20262;-80
2022/06/14 09:35:07;;;;;;;4.63;3.07;;;;;;;22.88;45.33;98614.91;5024992;28;20219;-80
2022/06/14 09:38:02;;;;;;;7.70;3.60;;;;;;;22.97;44.91;98619.25;5055910;28;20231;-81
2022/06/14 09:40:39;;;;;;;4.13;3.53;;;;;;;23.11;45.67;98623.94;5055835;28;20212;-81
2022/06/14 09:43:45;;;;;;;5.07;3.30;;;;;;;23.23;45.87;98624.47;5055559;28;20232;-80
2022/06/14 09:46:48;;;;;;;4.87;3.47;;;;;;;23.28;45.34;98617.53;5055906;28;20223;-81
2022/06/14 09:49:56;;;;;;;5.03;3.60;;;;;;;23.29;45.08;98613.81;5053210;28;20214;-81
2022/06/14 09:53:13;;;;;;;4.43;3.20;;;;;;;23.38;44.62;98612.78;5016824;28;20222;-80
2022/06/14 09:56:11;;;;;;;4.60;3.43;;;;;;;23.50;45.17;98607.81;4993385;28;20212;-80
2022/06/14 09:58:58;;;;;;;5.37;3.63;;;;;;;23.55;43.73;98609.00;5055257;28;20234;-80
2022/06/14 10:01:31;;;;;;;5.17;3.73;;;;;;;23.53;43.84;98611.00;5054632;28;20279;-80
2022/06/14 10:04:26;;;;;;;5.10;3.37;;;;;;;23.42;41.43;98603.28;5054872;28;20642;-78
2022/06/14 10:07:46;;;;;;;5.13;3.90;;;;;;;23.30;43.93;98593.94;5054574;28;20254;-81
2022/06/14 10:10:28;;;;;;;4.83;3.43;;;;;;;23.38;43.65;98590.34;4992375;28;20269;-81
2022/06/14 10:13:48;;;;;;;5.20;3.60;;;;;;;23.54;42.69;98593.81;5046525;28;20216;-80
2022/06/14 10:16:32;;;;;;;4.07;3.53;;;;;;;23.65;44.19;98593.41;5054831;28;20212;-81
2022/06/14 10:19:28;;;;;;;6.07;3.60;;;;;;;23.75;44.36;98588.66;5053053;28;20218;-81
2022/06/14 10:22:08;;;;;;;5.33;3.80;;;;;;;23.83;43.24;98591.28;5023924;28;20215;-81
2022/06/14 10:24:42;;;;;;;3.87;3.43;;;;;;;23.96;41.17;98586.19;5054569;28;20232;-80
2022/06/14 10:30:16;;;;;;;5.70;3.83;;;;;;;23.71;41.95;98579.22;5054386;28;20677;-79
2022/06/14 10:33:09;;;;;;;4.67;3.73;;;;;;;23.92;40.64;98584.88;5054379;28;20208;-78
2022/06/14 10:35:49;;;;;;;5.47;3.80;;;;;;;23.63;41.52;98573.00;5054713;28;20212;-77
2022/06/14 10:38:33;;;;;;;4.47;3.40;;;;;;;23.43;41.43;98578.03;5054600;28;20243;-77
2022/06/14 10:41:02;;;;;;;4.60;3.50;;;;;;;23.55;41.27;98583.84;5054233;28;20208;-77
2022/06/14 10:43:37;;;;;;;5.37;3.43;;;;;;;23.56;43.04;98578.28;5053667;28;20318;-77
2022/06/14 10:46:10;;;;;;;4.37;3.37;;;;;;;23.53;41.62;98584.03;5051734;28;20214;-80
2022/06/14 10:49:20;;;;;;;4.57;3.80;;;;;;;23.57;42.54;98566.47;5054088;28;20212;-79
2022/06/14 10:52:03;;;;;;;5.50;3.70;;;;;;;23.85;43.68;98566.81;5054188;28;20208;-79
2022/06/14 10:54:44;;;;;;;4.60;3.53;;;;;;;24.05;42.73;98558.09;5053616;28;20212;-79
2022/06/14 10:57:19;;;;;;;5.57;3.87;;;;;;;24.18;40.77;98552.09;5053977;28;20208;-80
2022/06/14 11:00:06;;;;;;;5.93;3.60;;;;;;;24.12;41.45;98563.63;5053955;28;20549;-80
2022/06/14 11:03:08;;;;;;;5.50;3.47;;;;;;;24.21;42.43;98552.56;5053609;28;20215;-79
2022/06/14 11:05:51;;;;;;;6.27;3.47;;;;;;;24.35;41.15;98549.09;5053938;28;20216;-80
2022/06/14 11:08:37;;;;;;;4.93;3.07;;;;;;;24.47;42.64;98558.44;5054059;28;20203;-80
2022/06/14 11:11:34;;;;;;;4.20;3.10;;;;;;;24.51;42.99;98548.91;5052312;28;20211;-79
2022/06/14 11:14:13;;;;;;;5.47;3.30;;;;;;;24.57;41.80;98547.41;5054131;28;20224;-79
2022/06/14 11:16:56;;;;;;;4.27;3.00;;;;;;;24.68;40.63;98545.06;5053737;28;20208;-80
2022/06/14 11:19:50;;;;;;;6.50;3.30;;;;;;;24.32;39.16;98546.72;5053547;28;20222;-78
2022/06/14 11:22:29;;;;;;;3.57;3.10;;;;;;;24.21;40.46;98546.34;5053429;28;20216;-79
2022/06/14 11:25:05;;;;;;;5.07;3.10;;;;;;;24.35;41.54;98548.25;5054188;28;20231;-78
2022/06/14 11:27:42;;;;;;;4.83;3.47;;;;;;;24.47;39.73;98535.97;5053435;28;20218;-78
2022/06/14 11:30:18;;;;;;;5.30;3.10;;;;;;;24.52;41.21;98539.81;5053855;28;20207;-78
2022/06/14 11:32:53;;;;;;;4.07;3.37;;;;;;;24.59;41.05;98535.38;5053313;28;20207;-79
2022/06/14 11:35:41;;;;;;;4.10;3.17;;;;;;;24.46;39.27;98534.28;5053422;28;20214;-78
2022/06/14 11:38:42;;;;;;;3.60;2.93;;;;;;;24.37;40.16;98529.97;5051597;28;20240;-79
2022/06/14 11:41:11;;;;;;;6.13;3.20;;;;;;;24.45;40.97;98527.22;5040803;28;20208;-79
2022/06/14 11:43:52;;;;;;;4.75;3.10;;;;;;;24.67;41.02;98527.19;5053157;28;20239;-79
2022/06/14 11:46:27;;;;;;;4.13;3.13;;;;;;;24.78;40.78;98529.44;5053548;28;20208;-79
2022/06/14 11:49:01;;;;;;;3.77;3.13;;;;;;;24.87;39.78;98527.50;5053248;28;20311;-79
2022/06/14 11:51:38;;;;;;;5.40;3.00;;;;;;;24.91;40.17;98524.22;5053378;28;20208;-79
2022/06/14 11:54:19;;;;;;;4.00;3.50;;;;;;;25.07;38.94;98524.03;5053344;28;20215;-79
2022/06/14 11:56:55;;;;;;;4.50;2.80;;;;;;;25.19;39.23;98522.53;5055635;28;20204;-79
2022/06/14 11:59:49;;;;;;;5.37;3.00;;;;;;;25.24;38.89;98522.81;5057656;28;20211;-79
2022/06/14 12:02:41;;;;;;;4.60;2.90;;;;;;;25.31;36.32;98520.22;5055441;28;20204;-79
2022/06/14 12:05:22;;;;;;;3.65;2.83;;;;;;;25.25;35.87;98513.69;5057024;28;20326;-81
2022/06/14 12:08:00;;;;;;;3.63;3.25;;;;;;;24.88;37.29;98513.75;5057408;28;20207;-80
2022/06/14 12:10:59;;;;;;;5.77;3.10;;;;;;;24.89;38.81;98504.66;5057065;28;20627;-80
2022/06/14 12:14:03;;;;;;;5.87;3.20;;;;;;;25.07;38.59;98502.41;5052087;28;20614;-80
2022/06/14 12:16:36;;;;;;;5.27;3.13;;;;;;;25.05;39.04;98499.03;5056996;28;20218;-81
2022/06/14 12:19:08;;;;;;;3.53;2.95;;;;;;;25.09;38.78;98494.94;5056833;28;20262;-80
2022/06/14 12:21:43;;;;;;;4.87;3.10;;;;;;;25.16;37.48;98497.69;5057797;28;20208;-77
2022/06/14 12:24:17;;;;;;;3.90;2.80;;;;;;;25.25;36.57;98494.75;5056468;28;20238;-78
2022/06/14 12:26:55;;;;;;;5.28;2.97;;;;;;;25.00;38.47;98496.03;5056438;28;20204;-78
2022/06/14 12:29:27;;;;;;;4.67;3.17;;;;;;;24.82;37.67;98498.28;5055088;28;20697;-79
2022/06/14 12:32:06;;;;;;;4.33;3.27;;;;;;;24.84;38.32;98493.53;5056702;28;20212;-79